KPTD

Potsdam Municipal / Damon Field / Airport

Potsdam, New York, USA
METAR KPTD 252155Z AUTO 18004KT 10SM OVC060 17/15 A2975 RMK AO2 P0002
Observed Flight Rules
May-25 @ 21:55 UTC (28 minutes ago) Visual Flight Rules
Wind Visibility Clouds
180° at 4 knots 10 miles
  • Overcast at 6,000' AGL
Temperatures Readings Precipitation
Current 17°C / 63°F
Dewpoint 15°C / 59°F
Humidity 88%
Altimeter 29.75" Hg
Pressure 1007 hPa
Elevation 144
Current Rain 0.02
METAR KPTD 252155Z AUTO 18004KT 10SM OVC060 17/15 A2975 RMK AO2 P0002
Observed Flight Rules
May-25 @ 21:55 UTC
(28 minutes ago)
VFR
Wind Visibility
180° at 4 knots 10 miles
Clouds
  • Overcast at 6,000' AGL
Temperature Dewpoint
17°C / 63°F 15°C / 59°F
Humidity Altimeter Pressure
88% 29.75" Hg 1007 hPa
Current Rain
0.02